Time;durP1;ratioP1;P1;durP2;ratioP2;P2;SDS_P1;SDS_P2;PMS_P1;PMS_P2;Temp;Humidity;BMP_temperature;BMP_pressure;BME280_temperature;BME280_humidity;BME280_pressure;Samples;Min_cycle;Max_cycle;Signal;HPM_P1;HPM_P2
2023/08/19 00:01:43;;;;;;;15.80;10.82;;;22.00;99.90;;;22.37;88.62;100275.38;4985163;28;20062;-89
2023/08/19 00:04:11;;;;;;;15.85;11.98;;;22.00;99.90;;;22.37;88.70;100275.38;5019337;28;20036;-88
2023/08/19 00:06:41;;;;;;;19.95;11.60;;;22.00;99.90;;;22.39;89.71;100273.16;5002106;28;20030;-88
2023/08/19 00:09:11;;;;;;;16.95;12.43;;;22.10;99.90;;;22.39;89.89;100273.16;5017738;28;20078;-88
2023/08/19 00:11:39;;;;;;;16.85;12.13;;;22.10;99.90;;;22.40;90.13;100269.34;4985169;28;20046;-90
2023/08/19 00:14:07;;;;;;;14.90;11.48;;;22.10;99.90;;;22.39;89.91;100267.72;4977151;28;20776;-89
2023/08/19 00:16:35;;;;;;;17.90;11.98;;;22.10;99.90;;;22.39;90.22;100266.91;4994497;28;20500;-89
2023/08/19 00:19:03;;;;;;;15.90;11.32;;;22.10;99.90;;;22.40;90.47;100265.81;4993807;28;20046;-90
2023/08/19 00:21:30;;;;;;;15.02;11.75;;;22.10;99.90;;;22.39;90.35;100267.72;4993615;28;20411;-90
2023/08/19 00:23:59;;;;;;;18.67;11.77;;;22.10;99.90;;;22.39;90.86;100265.00;4993562;28;20040;-89
2023/08/19 00:26:27;;;;;;;15.88;11.15;;;22.10;99.90;;;22.39;90.34;100267.72;4976209;28;20060;-89
2023/08/19 00:28:54;;;;;;;16.02;11.50;;;22.10;99.90;;;22.37;89.92;100264.50;4992743;28;20074;-89
2023/08/19 00:31:23;;;;;;;15.95;11.05;;;22.10;99.90;;;22.36;89.22;100271.84;4977230;28;20126;-90
2023/08/19 00:33:50;;;;;;;16.63;10.45;;;22.00;99.90;;;22.34;88.90;100259.66;4976686;28;20474;-90
2023/08/19 00:36:17;;;;;;;15.63;10.88;;;22.00;99.90;;;22.33;88.81;100266.19;4976643;28;20042;-89
2023/08/19 00:38:45;;;;;;;17.55;11.43;;;22.00;99.90;;;22.31;88.58;100271.13;4989470;28;20082;-89
2023/08/19 00:41:13;;;;;;;19.77;11.38;;;22.00;99.90;;;22.32;89.89;100268.09;4970568;28;20414;-89
2023/08/19 00:43:42;;;;;;;17.33;11.40;;;22.00;99.90;;;22.32;89.28;100270.81;4976645;28;20047;-89
2023/08/19 00:46:09;;;;;;;13.60;11.18;;;22.00;99.90;;;22.32;90.12;100259.16;4992413;28;20038;-89
2023/08/19 00:48:37;;;;;;;18.60;11.48;;;22.00;99.90;;;22.33;90.13;100264.28;4992765;28;20116;-89
2023/08/19 00:51:05;;;;;;;15.63;10.55;;;21.90;99.90;;;22.32;89.25;100273.53;4992270;28;20411;-89
2023/08/19 00:53:34;;;;;;;16.40;10.38;;;22.00;99.90;;;22.33;89.09;100274.34;4992601;28;20073;-89
2023/08/19 00:56:02;;;;;;;17.55;10.68;;;22.00;99.90;;;22.30;88.86;100269.47;4991313;28;20046;-89
2023/08/19 00:58:30;;;;;;;15.10;10.88;;;22.00;99.90;;;22.30;88.60;100269.47;4975913;28;20530;-89
2023/08/19 01:01:01;;;;;;;15.55;10.65;;;22.00;99.90;;;22.29;88.19;100268.69;4976013;28;20038;-89
2023/08/19 01:03:28;;;;;;;17.15;11.00;;;21.90;99.90;;;22.25;88.38;100266.84;4960826;28;20704;-89
2023/08/19 01:06:11;;;;;;;12.73;10.23;;;21.90;99.90;;;22.26;88.10;100268.47;4989407;28;20042;-89
2023/08/19 01:08:51;;;;;;;17.85;10.10;;;21.90;99.90;;;22.21;88.57;100277.50;4979300;28;20117;-89
2023/08/19 01:11:52;;;;;;;15.52;9.65;;;21.90;99.90;;;22.21;88.51;100271.28;4969124;28;20078;-89
2023/08/19 01:14:37;;;;;;;12.95;8.35;;;21.80;99.90;;;22.18;88.21;100274.56;4991981;28;20053;-89
2023/08/19 01:17:09;;;;;;;13.65;8.40;;;21.80;99.90;;;22.16;87.74;100271.34;4972670;28;20494;-90
2023/08/19 01:19:38;;;;;;;15.20;8.02;;;21.80;99.90;;;22.14;87.57;100271.63;4975740;28;20054;-89
2023/08/19 01:22:07;;;;;;;16.83;7.57;;;21.80;99.90;;;22.13;87.81;100263.78;4991100;28;20034;-89
2023/08/19 01:24:38;;;;;;;15.73;8.02;;;21.80;99.90;;;22.12;87.29;100264.88;4990354;28;20073;-89
2023/08/19 01:27:06;;;;;;;12.68;7.40;;;21.80;99.90;;;22.09;87.35;100255.34;4972380;28;20077;-86
2023/08/19 01:29:34;;;;;;;13.93;7.32;;;21.70;99.90;;;22.09;87.14;100258.88;4975363;28;20042;-85
2023/08/19 01:32:03;;;;;;;13.35;7.32;;;21.70;99.90;;;22.08;86.94;100253.75;4992185;28;20100;-86
2023/08/19 01:34:30;;;;;;;20.55;7.45;;;21.70;99.90;;;22.05;86.42;100246.97;4967604;28;20137;-86
2023/08/19 01:37:07;;;;;;;19.98;7.10;;;21.70;99.90;;;22.03;86.33;100254.63;4972251;28;20133;-86
2023/08/19 01:39:38;;;;;;;13.63;6.75;;;21.70;99.90;;;22.02;85.85;100252.22;4990026;28;20081;-86
2023/08/19 01:42:06;;;;;;;12.25;6.72;;;21.60;99.90;;;22.00;85.71;100243.53;4987851;28;20442;-86
2023/08/19 01:44:38;;;;;;;13.70;6.60;;;21.60;99.90;;;21.98;85.19;100251.19;4987056;28;20050;-86
2023/08/19 01:47:16;;;;;;;12.20;6.40;;;21.50;99.90;;;21.96;85.29;100253.34;4994058;28;20058;-86
2023/08/19 01:49:46;;;;;;;8.87;6.40;;;21.60;99.90;;;;;;4982408;28;20674;-86
2023/08/19 01:52:14;;;;;;;10.48;6.72;;;21.50;99.90;;;21.92;84.64;100255.88;4976108;28;20344;-86
2023/08/19 01:54:43;;;;;;;13.63;6.50;;;21.50;99.90;;;21.91;84.30;100256.16;4975849;28;20077;-86
2023/08/19 01:57:10;;;;;;;15.60;6.90;;;21.50;99.90;;;21.89;84.25;100253.72;4974233;28;20062;-86
2023/08/19 01:59:38;;;;;;;12.95;6.22;;;21.40;99.90;;;21.87;84.22;100252.41;4975163;28;20048;-86
2023/08/19 02:02:05;;;;;;;11.43;6.07;;;21.40;99.90;;;21.83;84.07;100253.00;4993392;28;20042;-86
2023/08/19 02:04:32;;;;;;;12.15;6.28;;;21.40;99.90;;;21.82;83.85;100261.44;4985864;28;20038;-86
2023/08/19 02:07:00;;;;;;;12.85;6.38;;;21.40;99.90;;;21.80;83.81;100258.19;4990581;28;20042;-86
2023/08/19 02:09:28;;;;;;;10.52;6.15;;;21.30;99.90;;;21.76;83.40;100265.28;4974465;28;20513;-86
2023/08/19 02:11:57;;;;;;;11.65;5.97;;;21.30;99.90;;;21.74;83.75;100260.16;4992451;28;20050;-86
2023/08/19 02:14:24;;;;;;;11.02;6.32;;;21.30;99.90;;;21.73;84.08;100260.47;4973755;28;20043;-86
2023/08/19 02:16:52;;;;;;;11.82;5.93;;;21.30;99.90;;;21.74;83.66;100262.06;4990711;28;20133;-86
2023/08/19 02:19:20;;;;;;;12.38;6.07;;;21.30;99.90;;;21.74;83.49;100257.44;4991933;28;20116;-86
2023/08/19 02:21:47;;;;;;;9.43;5.80;;;21.30;99.90;;;21.73;83.01;100258.56;4975025;28;20042;-86
2023/08/19 02:24:14;;;;;;;9.55;5.80;;;21.30;99.90;;;21.72;82.80;100262.38;4991076;28;20112;-86
2023/08/19 02:26:42;;;;;;;11.25;5.38;;;21.30;99.90;;;21.71;81.88;100254.50;4974751;28;20820;-86
2023/08/19 02:29:10;;;;;;;12.00;5.70;;;21.30;99.90;;;21.71;82.33;100259.94;4974651;28;20048;-86
2023/08/19 02:31:39;;;;;;;9.57;5.82;;;21.30;99.90;;;21.71;82.41;100257.22;4973670;28;20101;-86
2023/08/19 02:34:06;;;;;;;12.38;6.00;;;21.30;99.90;;;21.71;82.25;100259.94;4987444;28;20044;-86
2023/08/19 02:36:33;;;;;;;9.57;5.68;;;21.30;99.90;;;21.72;82.15;100261.56;4991025;28;20042;-86
2023/08/19 02:39:01;;;;;;;10.48;5.80;;;21.30;99.90;;;21.72;82.29;100254.22;4990538;28;20078;-86
2023/08/19 02:41:28;;;;;;;9.05;5.38;;;21.30;99.90;;;21.73;82.33;100257.75;4992262;28;20118;-86
2023/08/19 02:43:56;;;;;;;11.20;6.20;;;21.30;99.90;;;21.72;82.55;100243.38;4969662;28;20053;-86
2023/08/19 02:46:25;;;;;;;12.15;6.07;;;21.30;99.90;;;21.72;82.21;100246.09;4991845;28;20046;-86
2023/08/19 02:48:52;;;;;;;9.70;5.63;;;21.30;99.90;;;21.71;82.46;100238.22;4990542;28;20050;-86
2023/08/19 02:51:19;;;;;;;10.20;5.80;;;21.30;99.90;;;21.71;82.18;100239.03;4964091;28;20074;-86
2023/08/19 02:53:47;;;;;;;10.07;5.97;;;21.30;99.90;;;21.71;82.19;100238.22;4961848;28;20070;-86
2023/08/19 02:56:14;;;;;;;10.70;5.93;;;21.30;99.90;;;21.70;81.92;100239.31;4974218;28;20096;-86
2023/08/19 02:58:41;;;;;;;9.95;5.38;;;21.30;99.90;;;21.69;81.98;100232.28;4973958;28;20101;-86
2023/08/19 03:01:12;;;;;;;10.07;5.18;;;21.30;99.90;;;21.67;82.06;100231.75;4974450;28;20052;-86
2023/08/19 03:03:41;;;;;;;14.25;6.03;;;21.20;99.90;;;21.67;82.09;100234.47;4972704;28;20046;-86
2023/08/19 03:06:08;;;;;;;10.77;5.72;;;21.20;99.90;;;21.64;82.13;100224.19;4976480;28;20085;-86
2023/08/19 03:08:35;;;;;;;13.27;6.00;;;21.10;99.90;;;21.62;82.32;100220.94;4974589;28;20479;-86
2023/08/19 03:11:04;;;;;;;9.30;5.18;;;21.20;99.90;;;21.60;82.14;100230.19;4990522;28;20104;-86
2023/08/19 03:13:31;;;;;;;11.90;5.55;;;21.20;99.90;;;21.63;82.12;100225.31;4990073;28;20393;-86
2023/08/19 03:16:03;;;;;;;8.68;5.30;;;21.20;99.90;;;21.59;82.47;100231.31;4975465;28;20038;-86
2023/08/19 03:18:30;;;;;;;12.57;5.72;;;21.20;99.90;;;21.60;82.29;100226.69;4992513;28;20065;-86
2023/08/19 03:21:01;;;;;;;10.30;5.60;;;21.20;99.90;;;21.58;81.95;100229.69;4977895;28;20129;-86
2023/08/19 03:23:29;;;;;;;8.93;5.85;;;21.20;99.90;;;21.56;81.85;100228.34;4977718;28;20487;-86
2023/08/19 03:25:57;;;;;;;14.43;6.43;;;21.10;99.90;;;21.55;81.95;100222.13;4993861;28;20047;-86
2023/08/19 03:28:25;;;;;;;12.25;5.95;;;21.10;99.90;;;21.55;82.04;100219.41;4977652;28;20042;-86
2023/08/19 03:30:52;;;;;;;11.93;5.75;;;21.10;99.90;;;21.56;81.93;100220.22;4977509;28;20046;-86
2023/08/19 03:33:21;;;;;;;11.45;6.00;;;21.10;99.90;;;21.53;82.31;100208.03;4974395;28;20698;-86
2023/08/19 03:35:48;;;;;;;11.30;5.40;;;21.10;99.90;;;21.54;82.38;100208.84;4993745;28;20046;-86
2023/08/19 03:38:17;;;;;;;9.77;5.60;;;21.10;99.90;;;21.52;82.58;100194.75;4977707;28;20097;-86
2023/08/19 03:40:44;;;;;;;11.13;6.22;;;21.10;99.90;;;21.52;82.79;100205.59;4976845;28;20092;-86
2023/08/19 03:43:12;;;;;;;8.32;5.18;;;21.10;99.90;;;21.54;82.91;100214.28;4974047;28;20051;-86
2023/08/19 03:45:39;;;;;;;9.13;5.10;;;21.10;99.90;;;21.55;83.23;100213.19;4993484;28;20073;-86
2023/08/19 03:48:07;;;;;;;7.20;5.00;;;21.10;99.90;;;21.55;82.76;100211.25;4993631;28;20039;-86
2023/08/19 03:50:34;;;;;;;10.70;5.20;;;21.20;99.90;;;21.55;83.19;100208.56;4977262;28;20566;-86
2023/08/19 03:53:01;;;;;;;7.45;4.57;;;21.20;99.90;;;21.55;82.66;100202.31;4978271;28;20128;-86
2023/08/19 03:55:30;;;;;;;7.00;4.63;;;21.20;99.90;;;21.55;82.53;100208.56;4976427;28;20081;-86
2023/08/19 03:57:58;;;;;;;9.02;5.20;;;21.20;99.90;;;21.57;82.48;100211.00;4993351;28;20407;-86
2023/08/19 04:00:25;;;;;;;8.05;5.35;;;21.20;99.90;;;21.58;82.38;100213.41;4993314;28;20054;-86
2023/08/19 04:02:53;;;;;;;9.27;5.15;;;21.20;99.90;;;21.58;82.14;100205.25;4976929;28;20100;-86
2023/08/19 04:05:20;;;;;;;10.52;4.82;;;21.20;99.90;;;21.58;82.38;100201.75;4976962;28;20047;-86
2023/08/19 04:07:48;;;;;;;11.52;5.38;;;21.20;99.90;;;21.57;82.05;100206.38;4994105;28;20038;-86
2023/08/19 04:10:16;;;;;;;9.80;5.20;;;21.20;99.90;;;21.58;82.08;100204.47;4993366;28;20050;-87
2023/08/19 04:12:47;;;;;;;9.77;5.00;;;21.20;99.90;;;21.57;82.10;100203.66;4973905;28;20134;-87
2023/08/19 04:15:14;;;;;;;9.93;4.93;;;21.20;99.90;;;21.57;82.24;100206.38;4974783;28;20058;-87
2023/08/19 04:17:43;;;;;;;10.07;5.50;;;21.20;99.90;;;21.58;82.11;100209.88;4994405;28;20058;-87
2023/08/19 04:20:13;;;;;;;9.82;6.07;;;21.30;99.90;;;21.61;81.78;100198.44;4993547;28;20074;-86
2023/08/19 04:22:40;;;;;;;11.40;6.25;;;21.30;99.90;;;21.63;81.77;100201.69;4977848;28;20148;-86
2023/08/19 04:25:09;;;;;;;8.05;5.85;;;21.30;99.90;;;21.66;81.83;100216.56;4977682;28;20066;-86
2023/08/19 04:27:36;;;;;;;15.60;6.70;;;21.30;99.90;;;21.64;82.43;100213.34;4976113;28;20069;-87
2023/08/19 04:30:08;;;;;;;12.48;6.00;;;21.30;99.90;;;21.64;82.60;100213.34;4992733;28;20046;-87
2023/08/19 04:32:36;;;;;;;11.10;5.93;;;21.30;99.90;;;21.60;82.63;100213.09;4991706;28;20053;-87
2023/08/19 04:35:04;;;;;;;10.65;5.70;;;21.30;99.90;;;21.58;83.37;100216.13;4976446;28;20418;-86
2023/08/19 04:37:31;;;;;;;11.60;5.40;;;21.30;99.90;;;21.59;83.71;100215.03;4976301;28;20054;-86
2023/08/19 04:39:59;;;;;;;10.90;5.78;;;21.30;99.90;;;21.59;83.39;100216.94;4972066;28;20050;-86
2023/08/19 04:42:34;;;;;;;7.53;5.20;;;21.30;99.90;;;21.62;83.59;100224.50;4992303;28;20054;-86
2023/08/19 04:45:01;;;;;;;16.95;5.28;;;21.30;99.90;;;21.64;84.18;100219.56;4976583;28;20424;-86
2023/08/19 04:47:32;;;;;;;10.98;5.40;;;21.30;99.90;;;21.65;84.35;100221.19;4986866;28;20045;-87
2023/08/19 04:49:59;;;;;;;12.52;5.28;;;21.30;99.90;;;21.64;84.98;100218.78;4988483;28;20051;-87
2023/08/19 04:52:27;;;;;;;9.32;5.00;;;21.30;99.90;;;21.65;84.82;100215.75;4983841;28;20500;-87
2023/08/19 04:54:54;;;;;;;10.93;5.53;;;21.30;99.90;;;21.69;85.35;100222.22;4960415;28;20054;-87
2023/08/19 04:57:22;;;;;;;7.63;5.10;;;21.40;99.90;;;21.72;85.91;100220.84;4971361;28;20454;-87
2023/08/19 04:59:49;;;;;;;11.48;5.60;;;21.40;99.90;;;21.76;85.84;100224.56;4975703;28;20042;-87
2023/08/19 05:02:17;;;;;;;7.68;4.60;;;21.50;99.90;;;21.80;86.03;100218.28;4989701;28;20051;-87
2023/08/19 05:04:45;;;;;;;7.47;4.88;;;21.60;99.90;;;21.83;86.30;100214.19;4975972;28;20905;-87
2023/08/19 05:07:13;;;;;;;9.60;4.93;;;21.60;99.90;;;21.88;86.70;100210.59;4974860;28;20046;-87
2023/08/19 05:09:40;;;;;;;8.60;4.72;;;21.70;99.90;;;21.90;85.50;100211.91;4969660;28;20113;-87
2023/08/19 05:12:09;;;;;;;8.73;4.60;;;21.70;99.90;;;21.95;82.40;100213.72;4991146;28;20133;-87
2023/08/19 05:14:36;;;;;;;8.98;4.03;;;21.80;99.90;;;21.98;81.57;100216.69;4976024;28;20046;-87
2023/08/19 05:17:04;;;;;;;6.43;4.07;;;21.80;99.90;;;22.02;78.36;100216.91;4975130;28;20461;-86
2023/08/19 05:19:33;;;;;;;9.57;3.95;;;21.90;99.90;;;22.07;77.85;100214.91;4991723;28;20058;-86
2023/08/19 05:22:02;;;;;;;9.77;3.50;;;22.00;99.90;;;22.14;75.00;100216.47;4992066;28;20073;-87
2023/08/19 05:24:30;;;;;;;12.18;3.70;;;22.10;99.90;;;22.23;73.69;100214.72;4975498;28;20105;-89
2023/08/19 05:26:57;;;;;;;7.45;3.30;;;22.20;99.90;;;22.31;71.91;100219.50;4968552;28;20122;-89
2023/08/19 05:29:30;;;;;;;7.65;3.67;;;22.30;99.90;;;22.34;71.71;100206.09;4992103;28;20042;-93
2023/08/19 05:31:59;;;;;;;6.82;3.47;;;22.40;99.90;;;22.41;71.57;100216.63;4974257;28;20070;-92
2023/08/19 05:34:29;;;;;;;8.07;3.88;;;22.40;99.90;;;22.46;71.61;100216.53;4978243;28;20042;-92
2023/08/19 05:36:58;;;;;;;11.35;4.03;;;22.50;99.90;;;22.48;72.61;100211.59;4995902;28;20638;-91
2023/08/19 05:39:27;;;;;;;8.88;4.07;;;22.50;99.90;;;22.52;74.14;100214.53;4970226;28;20419;-91
2023/08/19 05:41:54;;;;;;;11.57;3.95;;;22.50;99.90;;;22.53;75.05;100222.38;4975465;28;20375;-91
2023/08/19 05:44:21;;;;;;;9.65;4.05;;;22.60;99.90;;;22.52;77.70;100212.63;4975786;28;20125;-91
2023/08/19 05:46:50;;;;;;;7.32;3.40;;;22.60;99.90;;;22.52;76.01;100215.34;4992040;28;20485;-91
2023/08/19 05:49:18;;;;;;;11.52;3.60;;;22.60;99.90;;;22.56;73.93;100210.94;4992119;28;20129;-91
2023/08/19 05:51:45;;;;;;;6.78;3.70;;;22.60;99.90;;;22.61;74.94;100210.03;4970205;28;20070;-88
2023/08/19 05:54:13;;;;;;;6.63;3.83;;;22.70;99.90;;;22.62;75.86;100214.34;4981683;28;20517;-88
2023/08/19 05:56:41;;;;;;;7.85;3.70;;;22.70;99.90;;;22.65;74.56;100223.84;4991701;28;20149;-89
2023/08/19 05:59:09;;;;;;;7.55;3.83;;;22.70;99.90;;;22.68;74.49;100228.66;4991332;28;20137;-89
2023/08/19 06:01:36;;;;;;;9.88;4.50;;;22.80;99.90;;;22.72;74.48;100232.41;4991275;28;20054;-88
2023/08/19 06:04:04;;;;;;;7.22;3.97;;;22.80;99.90;;;22.73;74.66;100231.31;4991378;28;20038;-88
2023/08/19 06:06:31;;;;;;;8.65;3.88;;;22.80;99.90;;;22.75;75.74;100232.63;4989727;28;20082;-87
2023/08/19 06:08:58;;;;;;;9.18;3.63;;;22.80;99.90;;;22.74;75.60;100233.75;4991250;28;20045;-88
2023/08/19 06:11:26;;;;;;;9.65;4.00;;;22.80;99.90;;;22.76;76.21;100231.53;4991100;28;20080;-87
2023/08/19 06:13:54;;;;;;;7.50;3.67;;;22.80;99.90;;;22.79;74.76;100232.81;4991363;28;20070;-89
2023/08/19 06:16:22;;;;;;;6.15;3.90;;;22.90;99.90;;;22.82;74.54;100234.94;4991019;28;20270;-87
2023/08/19 06:18:49;;;;;;;8.88;3.83;;;22.90;99.90;;;22.83;74.48;100236.56;4990909;28;20720;-85
2023/08/19 06:21:17;;;;;;;6.80;3.60;;;22.90;99.90;;;22.85;74.82;100234.38;4989747;28;20133;-86
2023/08/19 06:23:44;;;;;;;10.77;4.00;;;22.90;99.90;;;22.85;73.60;100232.44;4973497;28;20141;-86
2023/08/19 06:26:11;;;;;;;8.13;3.55;;;22.90;99.90;;;22.88;74.38;100237.31;4974849;28;20495;-85
2023/08/19 06:28:39;;;;;;;6.28;3.40;;;23.00;99.90;;;22.91;70.73;100241.34;4975245;28;20038;-85
2023/08/19 06:31:08;;;;;;;10.85;3.70;;;23.00;99.90;;;22.98;71.96;100247.19;4973995;28;20145;-85
2023/08/19 06:33:36;;;;;;;8.80;3.42;;;23.10;99.90;;;23.03;71.40;100247.09;4982812;28;20100;-85
2023/08/19 06:36:05;;;;;;;7.43;3.30;;;23.20;99.90;;;23.08;69.44;100244.31;4992315;28;20399;-86
2023/08/19 06:38:33;;;;;;;6.82;3.05;;;23.20;99.90;;;23.16;68.37;100259.13;4992212;28;20129;-86
2023/08/19 06:41:05;;;;;;;6.70;3.72;;;23.30;99.90;;;23.22;67.98;100268.00;4989264;28;20050;-86
2023/08/19 06:43:33;;;;;;;7.38;3.28;;;23.40;99.90;;;23.23;70.31;100269.59;4967845;28;20057;-85
2023/08/19 06:46:02;;;;;;;7.82;3.60;;;23.40;99.90;;;23.25;69.99;100264.69;4975187;28;20561;-85
2023/08/19 06:48:33;;;;;;;8.93;3.90;;;23.40;99.90;;;23.25;72.62;100259.25;4982315;28;20045;-85
2023/08/19 06:51:02;;;;;;;;;;;23.40;99.90;;;23.25;69.25;100270.13;4992084;28;20049;-85
2023/08/19 06:53:30;;;;;;;8.00;3.53;;;23.40;99.90;;;23.25;68.75;100270.94;4994425;28;19922;-86
2023/08/19 06:56:09;;;;;;;8.48;3.22;;;23.40;99.90;;;23.23;69.90;100273.16;4945447;28;20046;-86
2023/08/19 06:58:44;;;;;;;9.25;3.65;;;23.40;99.90;;;23.24;70.13;100277.50;4986561;28;20051;-86
2023/08/19 07:01:19;;;;;;;7.88;4.07;;;23.40;99.90;;;23.25;71.92;100273.66;4993653;28;20129;-86
2023/08/19 07:03:51;;;;;;;8.15;3.70;;;23.40;99.90;;;23.25;70.81;100268.22;4978375;28;20042;-86
2023/08/19 07:06:21;;;;;;;8.00;3.63;;;23.30;99.90;;;23.25;70.18;100281.03;4995831;28;20105;-86
2023/08/19 07:08:50;;;;;;;8.98;4.10;;;23.40;99.90;;;23.27;72.50;100284.22;4984350;28;20130;-86
2023/08/19 07:11:18;;;;;;;8.32;3.55;;;23.40;99.90;;;23.27;72.11;100286.97;4977879;28;20153;-86
2023/08/19 07:13:46;;;;;;;9.18;3.70;;;23.40;99.90;;;23.27;70.48;100281.50;4988684;28;20061;-86
2023/08/19 07:16:18;;;;;;;10.02;3.55;;;23.40;99.90;;;23.28;68.67;100280.44;4976060;28;20045;-86
2023/08/19 07:18:52;;;;;;;8.60;3.45;;;23.40;99.90;;;23.30;67.90;100270.84;4993709;28;20100;-85
2023/08/19 07:21:21;;;;;;;10.40;3.67;;;23.40;99.90;;;23.33;68.81;100275.69;4984253;28;20038;-85
2023/08/19 07:23:49;;;;;;;8.38;3.72;;;23.50;99.90;;;23.34;68.38;100281.94;4976901;28;20074;-86
2023/08/19 07:26:17;;;;;;;9.02;3.60;;;23.50;99.90;;;23.35;67.89;100273.47;4977959;28;20042;-87
2023/08/19 07:28:45;;;;;;;12.30;3.53;;;23.50;99.90;;;23.37;67.53;100270.44;4977802;28;20112;-84
2023/08/19 07:31:14;;;;;;;8.20;3.88;;;23.50;99.90;;;23.39;68.19;100273.69;4993059;28;20046;-88
2023/08/19 07:33:41;;;;;;;9.15;4.10;;;23.50;99.90;;;23.39;69.59;100271.75;4977425;28;20124;-87
2023/08/19 07:36:10;;;;;;;6.75;3.60;;;23.50;99.90;;;23.42;68.49;100272.25;4994106;28;20141;-88
2023/08/19 07:38:38;;;;;;;10.35;3.83;;;23.60;99.90;;;23.44;68.89;100279.03;4977533;28;20066;-87
2023/08/19 07:41:05;;;;;;;8.65;3.78;;;23.60;99.90;;;23.45;68.99;100285.28;4994066;28;20054;-86
2023/08/19 07:43:32;;;;;;;9.20;4.20;;;23.60;99.90;;;23.46;69.31;100279.50;4977500;28;20529;-87
2023/08/19 07:46:00;;;;;;;7.50;3.92;;;23.60;99.90;;;23.48;70.51;100285.47;4977371;28;20047;-88
2023/08/19 07:48:28;;;;;;;6.93;4.15;;;23.60;99.90;;;23.48;69.59;100288.22;4977284;28;20046;-88
2023/08/19 07:50:55;;;;;;;7.68;4.20;;;23.60;99.90;;;23.54;69.51;100297.06;4984298;28;20049;-87
2023/08/19 07:53:24;;;;;;;6.30;3.70;;;23.70;99.90;;;23.53;69.17;100300.91;4988365;28;20045;-88
2023/08/19 07:55:51;;;;;;;9.38;3.83;;;23.70;99.90;;;23.55;69.76;100291.31;4992877;28;20133;-88
2023/08/19 07:58:18;;;;;;;7.40;3.88;;;23.70;99.90;;;23.59;68.35;100289.63;4997736;28;20487;-88
2023/08/19 08:00:46;;;;;;;6.88;3.70;;;23.80;99.90;;;23.63;68.31;100292.53;4993509;28;20129;-88
2023/08/19 08:03:13;;;;;;;7.38;3.95;;;23.80;99.90;;;23.67;69.31;100299.03;4979624;28;20073;-87
2023/08/19 08:05:40;;;;;;;8.75;4.20;;;23.90;99.90;;;23.71;69.26;100301.94;4986666;28;20050;-88
2023/08/19 08:08:07;;;;;;;16.38;4.45;;;23.90;99.90;;;23.74;69.18;100298.63;4993500;28;20092;-87
2023/08/19 08:10:36;;;;;;;8.65;4.20;;;23.90;99.90;;;23.78;68.73;100297.72;4981423;28;20038;-87
2023/08/19 08:13:04;;;;;;;6.72;3.60;;;24.00;99.90;;;23.83;69.21;100300.31;4977642;28;20073;-86
2023/08/19 08:15:31;;;;;;;9.63;4.13;;;24.10;99.90;;;23.90;70.50;100295.25;4990162;28;20140;-86
2023/08/19 08:17:59;;;;;;;6.55;3.80;;;24.10;99.90;;;23.92;69.67;100294.97;4996620;28;20073;-88
2023/08/19 08:20:26;;;;;;;6.80;3.80;;;24.20;99.90;;;23.96;69.82;100296.00;4975717;28;20042;-89
2023/08/19 08:22:54;;;;;;;9.98;3.95;;;24.20;99.90;;;24.04;69.50;100289.81;4975025;28;20062;-91
2023/08/19 08:25:21;;;;;;;7.40;4.22;;;24.40;99.90;;;24.16;69.58;100294.75;4993903;28;20125;-90
2023/08/19 08:27:49;;;;;;;8.75;3.92;;;24.50;99.90;;;24.33;66.95;100296.81;4987795;28;20515;-90
2023/08/19 08:30:17;;;;;;;11.85;4.10;;;24.70;99.90;;;24.52;67.39;100289.31;4972207;28;20085;-90
2023/08/19 08:32:44;;;;;;;7.30;3.75;;;24.90;99.90;;;24.67;67.93;100288.13;4970474;28;20477;-91
2023/08/19 08:35:12;;;;;;;7.60;4.00;;;25.10;99.90;;;24.81;68.66;100290.81;4998885;28;20057;-91
2023/08/19 08:37:39;;;;;;;14.20;4.20;;;25.30;99.90;;;25.00;69.10;100293.34;4979738;28;20458;-89
2023/08/19 08:40:09;;;;;;;9.90;3.97;;;25.50;99.90;;;25.34;69.13;100298.19;4996537;28;20082;-88
2023/08/19 08:42:37;;;;;;;8.48;3.90;;;25.90;99.90;;;25.66;68.21;100305.22;4985901;28;20042;-87
2023/08/19 08:45:07;;;;;;;9.55;4.05;;;26.20;99.90;;;25.78;66.17;100301.94;4976055;28;20521;-87
2023/08/19 08:47:35;;;;;;;7.20;4.18;;;26.40;99.60;;;25.74;64.15;100307.19;4998658;28;20515;-87
2023/08/19 08:50:02;;;;;;;11.15;4.32;;;26.30;97.40;;;25.64;63.84;100308.28;4989263;28;20046;-89
2023/08/19 08:52:30;;;;;;;8.63;3.92;;;26.20;97.30;;;25.56;63.84;100316.44;4996915;28;20038;-89
2023/08/19 08:55:00;;;;;;;10.50;4.13;;;26.10;97.20;;;25.52;64.24;100321.72;4980655;28;20042;-87
2023/08/19 08:57:27;;;;;;;8.23;3.63;;;26.00;97.90;;;25.49;66.09;100325.09;5008094;28;20078;-86
2023/08/19 08:59:55;;;;;;;10.93;4.38;;;26.00;99.90;;;25.47;67.57;100332.78;4980242;28;20046;-86
2023/08/19 09:02:26;;;;;;;8.40;4.05;;;26.00;99.90;;;25.44;67.30;100341.63;4975136;28;20129;-86
2023/08/19 09:04:53;;;;;;;;;;;25.90;99.90;;;25.39;69.90;100334.38;4971607;28;20133;-86
2023/08/19 09:07:26;;;;;;;9.95;4.38;;;25.90;99.90;;;25.38;71.99;100342.88;4976045;28;20024;-86
2023/08/19 09:09:55;;;;;;;12.68;4.15;;;25.80;99.90;;;25.34;70.99;100341.88;4986353;28;20042;-86
2023/08/19 09:12:23;;;;;;;8.35;3.80;;;25.70;99.90;;;25.36;68.13;100340.44;4992709;28;20116;-86
2023/08/19 09:14:59;;;;;;;9.63;4.10;;;25.80;99.90;;;25.40;69.77;100351.56;4992848;28;20046;-86
2023/08/19 09:17:27;;;;;;;11.55;4.15;;;25.80;99.90;;;25.38;69.51;100353.81;4993139;28;20108;-86
2023/08/19 09:19:57;;;;;;;9.93;4.40;;;25.80;99.90;;;25.37;70.21;100357.63;5000098;28;20137;-84
2023/08/19 09:22:25;;;;;;;12.13;4.75;;;25.80;99.90;;;25.39;71.38;100352.69;4983011;28;20428;-82
2023/08/19 09:24:53;;;;;;;11.75;4.40;;;25.80;99.90;;;25.41;70.84;100364.88;4988776;28;20046;-87
2023/08/19 09:27:27;;;;;;;9.88;4.43;;;25.80;99.90;;;25.42;69.21;100354.75;4989933;28;20053;-87
2023/08/19 09:29:55;;;;;;;8.57;4.18;;;25.80;99.90;;;25.47;69.18;100354.63;4992561;28;20057;-87
2023/08/19 09:32:31;;;;;;;10.00;4.18;;;25.90;99.90;;;25.52;69.61;100354.47;4970524;28;20046;-88
2023/08/19 09:35:04;;;;;;;9.02;4.07;;;25.90;99.90;;;25.63;70.80;100360.50;4989255;28;20055;-87
2023/08/19 09:37:32;;;;;;;9.23;4.70;;;26.10;99.90;;;25.74;70.01;100361.03;4990265;28;20136;-87
2023/08/19 09:40:00;;;;;;;8.85;4.38;;;26.20;99.90;;;25.82;71.30;100369.28;4975430;28;20073;-87
2023/08/19 09:42:28;;;;;;;9.18;4.50;;;26.30;99.90;;;25.85;71.28;100370.56;4975047;28;20141;-87
2023/08/19 09:44:56;;;;;;;10.70;4.13;;;26.30;99.90;;;25.91;71.59;100377.50;4987927;28;20046;-87
2023/08/19 09:47:24;;;;;;;11.57;4.30;;;26.40;99.90;;;25.91;70.22;100372.03;4991663;28;20053;-87
2023/08/19 09:49:54;;;;;;;9.40;4.35;;;26.40;99.90;;;25.92;67.99;100381.88;4992624;28;20410;-88
2023/08/19 09:52:21;;;;;;;8.87;4.27;;;26.30;99.90;;;25.93;67.05;100372.53;4975292;28;20097;-86
2023/08/19 09:54:54;;;;;;;13.07;4.25;;;26.40;99.90;;;25.96;67.89;100385.56;4992989;28;20070;-91
2023/08/19 09:57:33;;;;;;;13.57;4.30;;;26.40;99.90;;;25.94;71.21;100383.16;4991905;28;20054;-85
2023/08/19 10:00:03;;;;;;;7.15;3.90;;;26.40;99.90;;;25.96;69.36;100390.22;4991773;28;20042;-91
2023/08/19 10:02:35;;;;;;;11.40;4.82;;;26.40;99.90;;;25.96;69.46;100391.03;4992691;28;20090;-91
2023/08/19 10:07:54;;;;;;;9.68;4.65;;;26.40;99.90;;;25.94;69.53;100394.09;4975137;28;20051;-91
2023/08/19 10:10:25;;;;;;;9.65;4.63;;;26.40;99.90;;;25.96;70.01;100390.22;4984476;28;20491;-90
2023/08/19 10:12:56;;;;;;;10.02;4.65;;;26.40;99.90;;;25.94;69.88;100396.81;4971176;28;20038;-91
2023/08/19 10:15:26;;;;;;;15.68;4.70;;;26.40;99.90;;;25.99;72.75;100400.53;4991817;28;20515;-91
2023/08/19 10:18:31;;;;;;;8.05;4.38;;;26.40;99.90;;;25.99;70.99;100400.53;4976185;28;20062;-94
2023/08/19 10:21:06;;;;;;;14.10;4.70;;;26.40;99.90;;;26.13;69.42;100401.22;4992435;28;20047;-88